Rush Springs, Oklahoma
Current Conditions -  °F | °C
As of 8:55 PM on Sunday 21 Dec 2014 (Local Time) from KDUC Reporting Station
Broken Clouds Broken Clouds  
Wind Chill: 10°   Ceiling: 1500
Heat Index: 10°   Visibility: NA
Dew Point:   Wind: 15mph
Humidity: 94%   Direction: 160°SSE
Pressure: 29.7"   Gusts: 21mph
Location:  34.78°N, 97.96°W
Report Text: KDUC 220255Z AUTO 16013G18KT BKN015 BKN020 10/09 A2970 RMK AO2 PWINO
Loading
Personal Weather Stations






























Interactive Weather Map New forecast layout! Learn more

10-Day Weather Forecast

Advertisements
Track Severe Weather on mobile